Wetterstation Vordersexau
Wetterdaten: Woche 17.04.17 - 23.04.17 (KW16)
Datum Zeit Temp. A. Feuchte A. Luftdruck Regen Wind Richtung Taupunkt Windchill Windben
17.04.2017 00:00 6,1 C 84 % 992,6 hPa 0,0 l/m 0,0 km/h O 3,6 C 6,1 C 0,0 km/h
17.04.2017 01:00 5,9 C 84 % 992,0 hPa 0,0 l/m 0,0 km/h O 3,4 C 5,9 C 0,0 km/h
17.04.2017 02:00 5,8 C 83 % 991,6 hPa 0,0 l/m 0,0 km/h O 3,1 C 5,8 C 0,0 km/h
17.04.2017 03:00 5,4 C 83 % 991,1 hPa 0,0 l/m 0,0 km/h O 2,7 C 5,4 C 0,0 km/h
17.04.2017 04:00 5,1 C 83 % 990,4 hPa 0,0 l/m 0,0 km/h O-SO 2,5 C 5,1 C 0,0 km/h
17.04.2017 05:00 5,4 C 82 % 989,6 hPa 0,0 l/m 0,0 km/h O-SO 2,6 C 5,4 C 0,0 km/h
17.04.2017 06:00 5,5 C 81 % 989,3 hPa 0,0 l/m 0,0 km/h O 2,5 C 5,5 C 0,0 km/h
17.04.2017 07:00 5,9 C 80 % 989,0 hPa 0,0 l/m 0,0 km/h O-NO 2,7 C 5,9 C 0,0 km/h
17.04.2017 08:00 6,9 C 80 % 988,7 hPa 0,0 l/m 0,0 km/h W-SW 3,7 C 6,9 C 0,0 km/h
17.04.2017 09:00 8,4 C 85 % 1015,3 hPa 0,0 l/m 0,6 km/h SW 6,0 C 8,4 C 0,4 km/h
17.04.2017 10:00 8,8 C 82 % 1015,3 hPa 0,0 l/m 0,0 km/h SW 5,9 C 8,8 C 0,0 km/h
17.04.2017 11:00 8,9 C 81 % 1014,8 hPa 0,0 l/m 2,6 km/h W-SW 5,8 C 8,9 C 1,4 km/h
17.04.2017 12:00 9,6 C 83 % 1014,7 hPa 0,5 l/m 1,9 km/h W-SW 6,9 C 9,6 C 1,1 km/h
17.04.2017 13:00 10,0 C 78 % 1014,0 hPa 0,0 l/m 20,1 km/h W 6,3 C 3,3 C 11,2 km/h
17.04.2017 14:00 10,2 C 77 % 1014,0 hPa 0,0 l/m 18,1 km/h W-SW 6,4 C 4,2 C 10,1 km/h
17.04.2017 15:00 9,2 C 83 % 1013,9 hPa 0,0 l/m 11,0 km/h S-SW 6,5 C 6,1 C 6,1 km/h
17.04.2017 16:00 10,2 C 83 % 1013,5 hPa 0,0 l/m 7,1 km/h N 7,4 C 9,7 C 4,0 km/h
17.04.2017 17:00 7,1 C 85 % 1014,8 hPa 5,2 l/m 0,0 km/h N 4,8 C 7,1 C 0,0 km/h
17.04.2017 18:00 7,5 C 85 % 1015,3 hPa 0,0 l/m 0,0 km/h N-NO 5,1 C 7,5 C 0,0 km/h
17.04.2017 19:00 6,9 C 85 % 1016,2 hPa 0,5 l/m 0,0 km/h N 4,6 C 6,9 C 0,0 km/h
17.04.2017 20:00 6,1 C 85 % 1016,8 hPa 0,0 l/m 0,0 km/h N 3,8 C 6,1 C 0,0 km/h
17.04.2017 21:00 5,3 C 85 % 1017,6 hPa 0,0 l/m 0,0 km/h N 3,0 C 5,3 C 0,0 km/h
17.04.2017 22:00 3,3 C 85 % 1017,9 hPa 0,0 l/m 0,0 km/h N 1,0 C 3,3 C 0,0 km/h
17.04.2017 23:00 2,1 C 85 % 1018,2 hPa 0,0 l/m 0,0 km/h O-NO -0,2 C 2,1 C 0,0 km/h
18.04.2017 00:00 2,1 C 84 % 1018,2 hPa 0,0 l/m 0,0 km/h O-NO -0,3 C 2,1 C 0,0 km/h
18.04.2017 01:00 2,3 C 84 % 1017,8 hPa 0,0 l/m 0,0 km/h O-NO -0,1 C 2,3 C 0,0 km/h
18.04.2017 02:00 2,9 C 83 % 1017,7 hPa 0,0 l/m 0,0 km/h O-NO 0,3 C 2,9 C 0,0 km/h
18.04.2017 03:00 2,9 C 83 % 1017,9 hPa 0,0 l/m 0,0 km/h N 0,3 C 2,9 C 0,0 km/h
18.04.2017 04:00 2,1 C 83 % 1018,3 hPa 0,0 l/m 0,0 km/h N -0,5 C 2,1 C 0,0 km/h
18.04.2017 05:00 0,3 C 84 % 1018,7 hPa 0,0 l/m 0,0 km/h N -2,1 C 0,3 C 0,0 km/h
18.04.2017 06:00 0,1 C 83 % 1019,3 hPa 0,0 l/m 0,0 km/h N -2,4 C 0,1 C 0,0 km/h
18.04.2017 07:00 1,3 C 81 % 1020,1 hPa 0,0 l/m 0,0 km/h N -1,6 C 1,3 C 0,0 km/h
18.04.2017 08:00 3,2 C 77 % 1020,5 hPa 0,0 l/m 0,0 km/h O-NO -0,4 C 3,2 C 0,0 km/h
18.04.2017 09:00 5,8 C 76 % 1020,9 hPa 0,0 l/m 0,0 km/h NW 1,9 C 5,8 C 0,0 km/h
18.04.2017 10:00 5,8 C 81 % 1021,3 hPa 0,0 l/m 0,0 km/h N-NO 2,8 C 5,8 C 0,0 km/h
18.04.2017 11:00 5,4 C 77 % 1021,9 hPa 0,0 l/m 0,0 km/h N 1,7 C 5,4 C 0,0 km/h
18.04.2017 12:00 8,4 C 67 % 1021,8 hPa 0,0 l/m 7,8 km/h SO 2,6 C 7,3 C 4,3 km/h
18.04.2017 13:00 9,8 C 71 % 1021,5 hPa 0,0 l/m 17,5 km/h O-NO 4,8 C 3,9 C 9,7 km/h
18.04.2017 14:00 6,4 C 70 % 1022,4 hPa 0,0 l/m 0,0 km/h O-NO 1,3 C 6,4 C 0,0 km/h
18.04.2017 15:00 11,0 C 62 % 1021,9 hPa 0,0 l/m 0,0 km/h N 4,0 C 11,0 C 0,0 km/h
18.04.2017 16:00 9,5 C 63 % 1022,0 hPa 0,0 l/m 0,0 km/h N 2,8 C 9,5 C 0,0 km/h
18.04.2017 17:00 17,1 C 37 % 1021,7 hPa 0,0 l/m 0,0 km/h N-NO 2,3 C 17,1 C 0,0 km/h
18.04.2017 18:00 8,3 C 51 % 1022,1 hPa 0,0 l/m 0,0 km/h NO -1,2 C 8,3 C 0,0 km/h
18.04.2017 19:00 7,3 C 61 % 1022,5 hPa 0,0 l/m 0,0 km/h NO 0,3 C 7,3 C 0,0 km/h
18.04.2017 20:00 1,9 C 74 % 1023,3 hPa 0,0 l/m 0,0 km/h NO -2,2 C 1,9 C 0,0 km/h
18.04.2017 21:00 0,1 C 78 % 1024,0 hPa 0,0 l/m 0,0 km/h NO -3,3 C 0,1 C 0,0 km/h
18.04.2017 22:00 0,8 C 82 % 1024,4 hPa 0,0 l/m 0,0 km/h N-NO -1,9 C 0,8 C 0,0 km/h
18.04.2017 23:00 1,3 C 84 % 1024,5 hPa 0,0 l/m 0,0 km/h SO -1,1 C 1,3 C 0,0 km/h
19.04.2017 00:00 0,8 C 84 % 1024,6 hPa 0,0 l/m 0,0 km/h O -1,6 C 0,8 C 0,0 km/h
19.04.2017 01:00 -0,1 C 85 % 1024,6 hPa 0,0 l/m 0,0 km/h O -2,3 C -0,1 C 0,0 km/h
19.04.2017 02:00 0,6 C 85 % 1024,7 hPa 0,0 l/m 0,0 km/h O -1,6 C 0,6 C 0,0 km/h
19.04.2017 03:00 1,2 C 85 % 1024,9 hPa 0,0 l/m 0,0 km/h O -1,0 C 1,2 C 0,0 km/h
19.04.2017 04:00 1,1 C 85 % 1024,9 hPa 0,0 l/m 0,0 km/h O -1,1 C 1,1 C 0,0 km/h
19.04.2017 05:00 0,1 C 85 % 1025,0 hPa 0,0 l/m 0,0 km/h O -2,1 C 0,1 C 0,0 km/h
19.04.2017 06:00 0,9 C 85 % 1025,5 hPa 0,0 l/m 0,0 km/h O -1,3 C 0,9 C 0,0 km/h
19.04.2017 07:00 2,6 C 84 % 1025,7 hPa 0,0 l/m 0,0 km/h O-SO 0,2 C 2,6 C 0,0 km/h
19.04.2017 08:00 4,8 C 85 % 1025,9 hPa 0,0 l/m 0,0 km/h N-NO 2,5 C 4,8 C 0,0 km/h
19.04.2017 09:00 5,8 C 82 % 1026,1 hPa 0,0 l/m 0,0 km/h N-NW 3,0 C 5,8 C 0,0 km/h
19.04.2017 10:00 4,6 C 79 % 1026,8 hPa 0,5 l/m 0,0 km/h SO 1,3 C 4,6 C 0,0 km/h
19.04.2017 11:00 4,9 C 83 % 1027,4 hPa 1,0 l/m 0,0 km/h NO 2,3 C 4,9 C 0,0 km/h
19.04.2017 12:00 10,9 C 70 % 1027,2 hPa 0,0 l/m 0,0 km/h N-NO 5,6 C 10,9 C 0,0 km/h
19.04.2017 13:00 8,1 C 62 % 1026,9 hPa 0,0 l/m 0,0 km/h N-NO 1,3 C 8,1 C 0,0 km/h
19.04.2017 14:00 6,5 C 68 % 1027,1 hPa 0,0 l/m 0,0 km/h N 1,0 C 6,5 C 0,0 km/h
19.04.2017 15:00 7,2 C 64 % 1027,1 hPa 0,0 l/m 15,6 km/h O-SO 0,9 C 1,5 C 8,6 km/h
19.04.2017 16:00 12,3 C 52 % 1027,3 hPa 0,0 l/m 1,3 km/h O-SO 2,7 C 12,3 C 0,7 km/h
19.04.2017 17:00 7,9 C 67 % 1027,6 hPa 0,0 l/m 0,0 km/h N 2,2 C 7,9 C 0,0 km/h
19.04.2017 18:00 7,8 C 61 % 1028,0 hPa 0,0 l/m 18,8 km/h N-NO 0,8 C 0,9 C 10,4 km/h
19.04.2017 19:00 4,4 C 72 % 1028,4 hPa 0,0 l/m 0,0 km/h N-NO -0,2 C 4,4 C 0,0 km/h
19.04.2017 20:00 2,1 C 76 % 1029,1 hPa 0,0 l/m 0,0 km/h N-NO -1,7 C 2,1 C 0,0 km/h
19.04.2017 21:00 0,1 C 79 % 1029,6 hPa 0,0 l/m 0,0 km/h O-SO -3,1 C 0,1 C 0,0 km/h
19.04.2017 22:00 -0,7 C 81 % 1030,0 hPa 0,0 l/m 0,0 km/h N-NO -3,5 C -0,7 C 0,0 km/h
19.04.2017 23:00 0,3 C 81 % 1030,3 hPa 0,0 l/m 0,0 km/h O-NO -2,6 C 0,3 C 0,0 km/h
20.04.2017 00:00 -2,2 C 83 % 1030,6 hPa 0,0 l/m 0,0 km/h O-NO -4,7 C -2,2 C 0,0 km/h
20.04.2017 01:00 -2,7 C 84 % 1030,5 hPa 0,0 l/m 0,0 km/h O-NO -5,0 C -2,7 C 0,0 km/h
20.04.2017 02:00 -2,7 C 85 % 1030,5 hPa 0,5 l/m 0,0 km/h NO -4,9 C -2,7 C 0,0 km/h
20.04.2017 03:00 -3,2 C 85 % 1030,4 hPa 0,0 l/m 0,0 km/h NO -5,4 C -3,2 C 0,0 km/h
20.04.2017 04:00 -3,1 C 86 % 1030,5 hPa 0,0 l/m 0,0 km/h NO -5,1 C -3,1 C 0,0 km/h
20.04.2017 05:00 -4,1 C 86 % 1030,5 hPa 0,0 l/m 0,0 km/h NO -6,1 C -4,1 C 0,0 km/h
20.04.2017 06:00 -3,7 C 86 % 1031,1 hPa 0,0 l/m 0,0 km/h SO -5,7 C -3,7 C 0,0 km/h
20.04.2017 07:00 -1,8 C 85 % 1031,5 hPa 0,0 l/m 0,0 km/h NO -4,0 C -1,8 C 0,0 km/h
20.04.2017 08:00 8,0 C 74 % 1031,4 hPa 0,0 l/m 0,0 km/h N-NW 3,7 C 8,0 C 0,0 km/h
20.04.2017 09:00 9,9 C 54 % 1031,9 hPa 0,0 l/m 0,0 km/h NO 1,0 C 9,9 C 0,0 km/h
20.04.2017 10:00 11,9 C 46 % 1031,7 hPa 0,0 l/m 3,2 km/h N 0,7 C 11,9 C 1,8 km/h
20.04.2017 11:00 11,3 C 45 % 1031,6 hPa 0,0 l/m 7,8 km/h N-NO -0,2 C 10,3 C 4,3 km/h
20.04.2017 12:00 14,1 C 36 % 1031,5 hPa 0,0 l/m 5,2 km/h N -0,7 C 14,1 C 2,9 km/h
20.04.2017 13:00 13,1 C 39 % 1030,8 hPa 0,0 l/m 10,4 km/h NO -0,5 C 10,8 C 5,8 km/h
20.04.2017 14:00 14,9 C 37 % 1030,7 hPa 0,0 l/m 0,0 km/h N 0,3 C 14,9 C 0,0 km/h
20.04.2017 15:00 15,5 C 35 % 1029,8 hPa 0,0 l/m 0,0 km/h N 0,1 C 15,5 C 0,0 km/h
20.04.2017 16:00 18,4 C 29 % 1029,6 hPa 0,0 l/m 7,8 km/h O-NO 0,1 C 17,8 C 4,3 km/h
20.04.2017 17:00 20,4 C 26 % 1029,3 hPa 0,0 l/m 0,0 km/h O-NO 0,3 C 20,4 C 0,0 km/h
20.04.2017 18:00 18,4 C 26 % 1029,3 hPa 0,0 l/m 0,0 km/h N -1,4 C 18,4 C 0,0 km/h
20.04.2017 19:00 11,5 C 36 % 1029,3 hPa 0,0 l/m 10,4 km/h N -3,0 C 9,0 C 5,8 km/h
20.04.2017 20:00 5,3 C 51 % 1029,8 hPa 0,0 l/m 0,0 km/h O-NO -4,0 C 5,3 C 0,0 km/h
20.04.2017 21:00 2,4 C 61 % 1030,6 hPa 0,0 l/m 0,0 km/h SO -4,3 C 2,4 C 0,0 km/h
20.04.2017 22:00 1,4 C 68 % 1030,6 hPa 0,0 l/m 0,0 km/h O-NO -3,8 C 1,4 C 0,0 km/h
20.04.2017 23:00 1,1 C 71 % 1030,6 hPa 0,0 l/m 0,0 km/h O-SO -3,6 C 1,1 C 0,0 km/h
21.04.2017 00:00 0,3 C 73 % 1030,5 hPa 0,0 l/m 0,0 km/h O -4,0 C 0,3 C 0,0 km/h
21.04.2017 01:00 -0,4 C 76 % 1030,1 hPa 0,0 l/m 0,0 km/h NO -4,1 C -0,4 C 0,0 km/h
21.04.2017 02:00 -1,4 C 77 % 1029,9 hPa 0,0 l/m 0,0 km/h O-SO -4,9 C -1,4 C 0,0 km/h
21.04.2017 03:00 -1,1 C 81 % 1029,6 hPa 0,0 l/m 0,0 km/h O-SO -3,9 C -1,1 C 0,0 km/h
21.04.2017 04:00 -1,1 C 81 % 1029,2 hPa 0,0 l/m 0,0 km/h O-SO -3,9 C -1,1 C 0,0 km/h
21.04.2017 05:00 -1,9 C 81 % 1029,4 hPa 0,0 l/m 0,0 km/h O-SO -4,7 C -1,9 C 0,0 km/h
21.04.2017 06:00 -1,6 C 83 % 1029,3 hPa 0,0 l/m 0,0 km/h O -4,1 C -1,6 C 0,0 km/h
21.04.2017 07:00 1,3 C 81 % 1029,2 hPa 0,0 l/m 0,0 km/h O-SO -1,6 C 1,3 C 0,0 km/h
21.04.2017 08:00 5,3 C 71 % 1029,6 hPa 0,0 l/m 0,0 km/h S-SW 0,5 C 5,3 C 0,0 km/h
21.04.2017 09:00 12,2 C 55 % 1029,8 hPa 0,0 l/m 0,0 km/h W-SW 3,4 C 12,2 C 0,0 km/h
21.04.2017 10:00 14,8 C 44 % 1029,6 hPa 0,0 l/m 0,0 km/h SW 2,7 C 14,8 C 0,0 km/h
21.04.2017 11:00 14,1 C 44 % 1029,6 hPa 0,0 l/m 8,4 km/h W 2,0 C 12,9 C 4,7 km/h
21.04.2017 12:00 16,4 C 40 % 1028,9 hPa 0,0 l/m 0,0 km/h S-SW 2,8 C 16,4 C 0,0 km/h
21.04.2017 13:00 17,7 C 35 % 1028,2 hPa 0,0 l/m 0,0 km/h W 2,1 C 17,7 C 0,0 km/h
21.04.2017 14:00 19,0 C 34 % 1027,4 hPa 0,0 l/m 0,0 km/h W 2,8 C 19,0 C 0,0 km/h
21.04.2017 15:00 20,3 C 32 % 1026,6 hPa 0,0 l/m 0,0 km/h W 3,1 C 20,3 C 0,0 km/h
21.04.2017 16:00 22,1 C 27 % 1025,5 hPa 0,0 l/m 0,0 km/h SW 2,2 C 22,1 C 0,0 km/h
21.04.2017 17:00 26,9 C 21 % 1025,0 hPa 0,0 l/m 0,0 km/h W-NW 2,7 C 26,9 C 0,0 km/h
21.04.2017 18:00 23,6 C 21 % 1024,7 hPa 0,0 l/m 0,0 km/h W-NW -0,0 C 23,6 C 0,0 km/h
21.04.2017 19:00 15,8 C 29 % 1024,5 hPa 0,0 l/m 0,0 km/h W-NW -2,2 C 15,8 C 0,0 km/h
21.04.2017 20:00 8,6 C 46 % 1024,9 hPa 0,0 l/m 0,0 km/h NW -2,4 C 8,6 C 0,0 km/h
21.04.2017 21:00 6,4 C 56 % 1025,3 hPa 0,0 l/m 0,0 km/h O-SO -1,7 C 6,4 C 0,0 km/h
21.04.2017 22:00 4,6 C 63 % 1025,1 hPa 0,0 l/m 0,0 km/h O -1,8 C 4,6 C 0,0 km/h
21.04.2017 23:00 4,1 C 66 % 1024,8 hPa 0,0 l/m 0,0 km/h O-SO -1,7 C 4,1 C 0,0 km/h
22.04.2017 00:00 3,4 C 69 % 1024,5 hPa 0,0 l/m 0,0 km/h O-SO -1,7 C 3,4 C 0,0 km/h
22.04.2017 01:00 2,5 C 71 % 1024,2 hPa 0,0 l/m 0,0 km/h O-SO -2,2 C 2,5 C 0,0 km/h
22.04.2017 02:00 1,6 C 73 % 1023,9 hPa 0,0 l/m 0,0 km/h O-SO -2,7 C 1,6 C 0,0 km/h
22.04.2017 03:00 1,9 C 75 % 1023,7 hPa 0,0 l/m 0,0 km/h O-SO -2,1 C 1,9 C 0,0 km/h
22.04.2017 04:00 1,1 C 77 % 1023,6 hPa 0,0 l/m 0,0 km/h O-SO -2,5 C 1,1 C 0,0 km/h
22.04.2017 05:00 0,9 C 78 % 1023,4 hPa 0,0 l/m 0,0 km/h O-SO -2,5 C 0,9 C 0,0 km/h
22.04.2017 06:00 0,9 C 79 % 1023,5 hPa 0,0 l/m 0,0 km/h O-SO -2,3 C 0,9 C 0,0 km/h
22.04.2017 07:00 2,9 C 80 % 1023,5 hPa 0,0 l/m 0,0 km/h O-SO -0,2 C 2,9 C 0,0 km/h
22.04.2017 08:00 10,4 C 63 % 1023,7 hPa 0,0 l/m 0,0 km/h SO 3,7 C 10,4 C 0,0 km/h
22.04.2017 09:00 12,5 C 54 % 1023,5 hPa 0,0 l/m 0,0 km/h SO 3,5 C 12,5 C 0,0 km/h
22.04.2017 10:00 12,8 C 52 % 1023,2 hPa 0,0 l/m 0,0 km/h NO 3,2 C 12,8 C 0,0 km/h
22.04.2017 11:00 12,8 C 55 % 1023,0 hPa 0,0 l/m 0,0 km/h N-NO 4,0 C 12,8 C 0,0 km/h
22.04.2017 12:00 13,9 C 55 % 1022,6 hPa 0,0 l/m 0,0 km/h N 5,0 C 13,9 C 0,0 km/h
22.04.2017 13:00 14,4 C 54 % 1021,9 hPa 0,0 l/m 0,0 km/h W 5,2 C 14,4 C 0,0 km/h
22.04.2017 14:00 13,8 C 55 % 1021,4 hPa 0,0 l/m 0,0 km/h W 4,9 C 13,8 C 0,0 km/h
22.04.2017 15:00 13,9 C 55 % 1020,8 hPa 0,0 l/m 0,0 km/h W 5,0 C 13,9 C 0,0 km/h
22.04.2017 16:00 14,5 C 55 % 1020,2 hPa 0,0 l/m 0,0 km/h N 5,6 C 14,5 C 0,0 km/h
22.04.2017 17:00 13,2 C 57 % 1020,0 hPa 0,0 l/m 0,0 km/h N 4,9 C 13,2 C 0,0 km/h
22.04.2017 18:00 12,2 C 59 % 1020,1 hPa 0,0 l/m 0,0 km/h N-NO 4,4 C 12,2 C 0,0 km/h
22.04.2017 19:00 11,3 C 64 % 1020,2 hPa 0,0 l/m 0,0 km/h N-NO 4,7 C 11,3 C 0,0 km/h
22.04.2017 20:00 10,3 C 69 % 1020,7 hPa 0,0 l/m 0,0 km/h N 4,9 C 10,3 C 0,0 km/h
22.04.2017 21:00 9,8 C 70 % 1021,1 hPa 0,0 l/m 0,0 km/h N 4,6 C 9,8 C 0,0 km/h
22.04.2017 22:00 9,3 C 70 % 1021,4 hPa 0,0 l/m 0,0 km/h N 4,1 C 9,3 C 0,0 km/h
22.04.2017 23:00 8,3 C 72 % 1021,6 hPa 0,0 l/m 0,0 km/h N 3,6 C 8,3 C 0,0 km/h
23.04.2017 00:00 6,6 C 75 % 1021,7 hPa 0,0 l/m 0,0 km/h NO 2,5 C 6,6 C 0,0 km/h
23.04.2017 01:00 4,3 C 79 % 1021,4 hPa 0,0 l/m 0,0 km/h NO 1,0 C 4,3 C 0,0 km/h
23.04.2017 02:00 2,9 C 82 % 1021,2 hPa 0,0 l/m 0,0 km/h O-NO 0,1 C 2,9 C 0,0 km/h
23.04.2017 03:00 2,2 C 83 % 1021,1 hPa 0,0 l/m 0,0 km/h O-NO -0,4 C 2,2 C 0,0 km/h
23.04.2017 04:00 1,1 C 84 % 1021,3 hPa 0,0 l/m 0,0 km/h O-NO -1,3 C 1,1 C 0,0 km/h
23.04.2017 05:00 1,2 C 85 % 1021,4 hPa 0,0 l/m 0,0 km/h O-NO -1,0 C 1,2 C 0,0 km/h
23.04.2017 06:00 1,9 C 85 % 1021,9 hPa 0,0 l/m 0,0 km/h O-NO -0,3 C 1,9 C 0,0 km/h
23.04.2017 07:00 3,8 C 85 % 1022,3 hPa 0,0 l/m 0,0 km/h O-NO 1,5 C 3,8 C 0,0 km/h
23.04.2017 08:00 9,8 C 84 % 1022,4 hPa 0,0 l/m 0,0 km/h N-NO 7,2 C 9,8 C 0,0 km/h
23.04.2017 09:00 15,6 C 48 % 1022,3 hPa 0,0 l/m 0,0 km/h N-NO 4,6 C 15,6 C 0,0 km/h
23.04.2017 10:00 15,1 C 40 % 1022,0 hPa 0,0 l/m 0,0 km/h N 1,6 C 15,1 C 0,0 km/h
23.04.2017 11:00 15,3 C 42 % 1021,8 hPa 0,0 l/m 0,0 km/h NW 2,5 C 15,3 C 0,0 km/h
23.04.2017 12:00 15,6 C 40 % 1021,5 hPa 0,0 l/m 0,0 km/h W-NW 2,1 C 15,6 C 0,0 km/h
23.04.2017 13:00 16,1 C 40 % 1021,0 hPa 0,0 l/m 3,2 km/h W-NW 2,5 C 16,1 C 1,8 km/h
23.04.2017 14:00 16,3 C 38 % 1020,6 hPa 0,0 l/m 5,2 km/h NW 2,0 C 16,3 C 2,9 km/h
23.04.2017 15:00 16,8 C 37 % 1020,1 hPa 0,0 l/m 1,3 km/h N 2,0 C 16,8 C 0,7 km/h
23.04.2017 16:00 19,7 C 30 % 1019,6 hPa 0,0 l/m 0,0 km/h N 1,6 C 19,7 C 0,0 km/h
23.04.2017 17:00 21,3 C 25 % 1019,4 hPa 0,0 l/m 11,7 km/h N 0,5 C 19,6 C 6,5 km/h
23.04.2017 18:00 19,9 C 26 % 1019,1 hPa 0,0 l/m 18,8 km/h N -0,2 C 16,3 C 10,4 km/h
23.04.2017 19:00 13,9 C 34 % 1019,3 hPa 0,0 l/m 0,0 km/h N-NO -1,7 C 13,9 C 0,0 km/h
23.04.2017 20:00 7,8 C 46 % 1019,4 hPa 0,0 l/m 0,0 km/h N-NO -3,1 C 7,8 C 0,0 km/h
23.04.2017 21:00 4,8 C 58 % 1019,8 hPa 0,0 l/m 0,0 km/h O-NO -2,7 C 4,8 C 0,0 km/h
23.04.2017 22:00 3,5 C 64 % 1019,7 hPa 0,0 l/m 0,0 km/h O-NO -2,7 C 3,5 C 0,0 km/h
23.04.2017 23:00 2,4 C 68 % 1019,5 hPa 0,0 l/m 0,0 km/h O-NO -2,9 C 2,4 C 0,0 km/h
Min-Datum _ 20.04.17 21.04.17 17.04.17 - 17.04.17 - 20.04.17 20.04.17 17.04.17
_ Min-Zeit 05:57 17:57 08:57 - 00:57 - 05:57 05:57 00:57
Minimum _ -4,1 C 21 % 988,7 hPa - 0,0 km/h - -6,1 C -4,1 C 0,0 km/h
Max-Datum _ 21.04.17 20.04.17 20.04.17 17.04.17 17.04.17 - 17.04.17 21.04.17 17.04.17
_ Max-Zeit 17:57 04:57 09:57 17:57 13:57 - 16:57 17:57 13:57
Maximum _ 26,9 C 86 % 1031,9 hPa 5,2 l/m 20,1 km/h
W
- 7,4 C 26,9 C 11,2 km/h
W
Durchschnitt _ 7,2 C 67 % 1022,2 hPa #8,3 l/m 1,3 km/h N 0,6 C 6,9 C 0,7 km/h
www.sexauwetter.de